createdAt,value
2017-10-01T00:00:29.637Z,37.66
2017-10-01T00:02:59.756Z,37.66
2017-10-01T00:05:29.980Z,37.65
2017-10-01T00:07:59.595Z,37.67
2017-10-01T00:10:30.787Z,37.65
2017-10-01T00:13:03.431Z,37.55
2017-10-01T00:15:35.238Z,37.60
2017-10-01T00:18:06.668Z,37.57
2017-10-01T00:20:39.072Z,37.63
2017-10-01T00:23:14.640Z,37.66
2017-10-01T00:25:44.757Z,37.69
2017-10-01T00:28:15.060Z,37.70
2017-10-01T00:30:46.041Z,37.69
2017-10-01T00:33:15.489Z,37.71
2017-10-01T00:35:46.436Z,37.70
2017-10-01T00:38:16.105Z,37.69
2017-10-01T00:40:46.154Z,37.68
2017-10-01T00:43:15.696Z,37.68
2017-10-01T00:45:45.544Z,37.69
2017-10-01T00:48:15.300Z,37.71
2017-10-01T00:50:44.997Z,37.72
2017-10-01T00:53:14.837Z,37.73
2017-10-01T00:55:44.682Z,37.74
2017-10-01T00:58:15.129Z,37.73
2017-10-01T01:00:45.123Z,37.75
2017-10-01T01:03:19.555Z,37.75
2017-10-01T01:05:54.992Z,37.74
2017-10-01T01:08:36.764Z,37.71
2017-10-01T01:11:07.945Z,37.75
2017-10-01T01:13:38.983Z,37.76
2017-10-01T01:16:09.114Z,37.77
2017-10-01T01:18:38.875Z,37.77
2017-10-01T01:21:10.140Z,37.75
2017-10-01T01:23:40.243Z,37.76
2017-10-01T01:26:09.937Z,37.75
2017-10-01T01:28:40.172Z,37.73
2017-10-01T01:31:09.828Z,37.72
2017-10-01T01:33:39.301Z,37.72
2017-10-01T01:36:10.850Z,37.74
2017-10-01T01:38:42.245Z,37.76
2017-10-01T01:41:11.781Z,37.76
2017-10-01T01:43:44.442Z,37.76
2017-10-01T01:46:14.678Z,37.77
2017-10-01T01:48:44.938Z,37.77
2017-10-01T01:51:15.335Z,37.78
2017-10-01T01:53:45.310Z,37.78
2017-10-01T01:56:15.120Z,37.77
2017-10-01T01:58:45.304Z,37.76
2017-10-01T02:01:18.831Z,37.75
2017-10-01T02:03:56.299Z,37.70
2017-10-01T02:06:26.788Z,37.76
2017-10-01T02:09:04.926Z,37.76
2017-10-01T02:11:35.161Z,37.77
2017-10-01T02:14:06.184Z,37.76
2017-10-01T02:16:35.939Z,37.76
2017-10-01T02:19:05.878Z,37.77
2017-10-01T02:21:36.162Z,37.77
2017-10-01T02:24:06.036Z,37.75
2017-10-01T02:26:35.621Z,37.73
2017-10-01T02:29:05.985Z,37.73
2017-10-01T02:31:35.748Z,37.71
2017-10-01T02:34:05.568Z,37.69
2017-10-01T02:36:36.021Z,37.71
2017-10-01T02:39:06.444Z,37.72
2017-10-01T02:41:36.946Z,37.73
2017-10-01T02:44:07.732Z,37.75
2017-10-01T02:46:37.832Z,37.73
2017-10-01T02:49:07.638Z,37.73
2017-10-01T02:51:38.063Z,37.76
2017-10-01T02:54:08.856Z,37.75
2017-10-01T02:56:38.533Z,37.77
2017-10-01T02:59:09.293Z,37.77
2017-10-01T03:01:39.684Z,37.73
2017-10-01T03:04:10.476Z,37.72
2017-10-01T03:06:40.558Z,37.69
2017-10-01T03:09:11.641Z,37.70
2017-10-01T03:11:57.607Z,37.71
2017-10-01T03:14:27.892Z,37.69
2017-10-01T03:16:59.084Z,37.69
2017-10-01T03:22:26.683Z,37.69
2017-10-01T03:24:56.787Z,37.73
2017-10-01T03:27:27.036Z,37.66
2017-10-01T03:29:56.860Z,37.68
2017-10-01T03:32:28.105Z,37.68
2017-10-01T03:34:58.627Z,37.67
2017-10-01T03:37:28.824Z,37.68
2017-10-01T03:39:58.737Z,37.69
2017-10-01T03:42:28.317Z,37.69
2017-10-01T03:44:59.503Z,37.66
2017-10-01T03:47:29.408Z,37.70
2017-10-01T03:50:00.135Z,37.66
2017-10-01T03:52:29.665Z,37.69
2017-10-01T03:55:00.029Z,37.70
2017-10-01T03:57:36.661Z,37.70
2017-10-01T04:00:06.618Z,37.69
2017-10-01T04:02:36.873Z,37.65
2017-10-01T04:05:06.686Z,37.67
2017-10-01T04:07:37.246Z,37.67
2017-10-01T04:10:07.192Z,37.70
2017-10-01T04:12:43.493Z,37.70
2017-10-01T04:15:13.536Z,37.71
2017-10-01T04:17:43.650Z,37.72
2017-10-01T04:20:13.988Z,37.71
2017-10-01T04:22:43.927Z,37.71
2017-10-01T04:25:15.371Z,37.66
2017-10-01T04:27:44.925Z,37.67
2017-10-01T04:30:14.638Z,37.68
2017-10-01T04:32:46.194Z,37.70
2017-10-01T04:35:16.315Z,37.67
2017-10-01T04:37:54.049Z,37.66
2017-10-01T04:40:33.039Z,37.65
2017-10-01T04:43:06.000Z,37.68
2017-10-01T04:45:36.465Z,37.67
2017-10-01T04:48:11.071Z,37.64
2017-10-01T04:50:41.449Z,37.68
2017-10-01T04:53:11.430Z,37.66
2017-10-01T04:55:41.333Z,37.65
2017-10-01T04:58:13.457Z,37.63
2017-10-01T05:00:43.586Z,37.64
2017-10-01T05:03:14.956Z,37.67
2017-10-01T05:05:45.332Z,37.67
2017-10-01T05:08:15.104Z,37.68
2017-10-01T05:10:45.076Z,37.67
2017-10-01T05:13:16.033Z,37.65
2017-10-01T05:15:48.103Z,37.65
2017-10-01T05:18:19.824Z,37.59
2017-10-01T05:20:52.322Z,37.63
2017-10-01T05:23:22.417Z,37.64
2017-10-01T05:25:54.480Z,37.53
2017-10-01T05:28:24.108Z,37.64
2017-10-01T05:30:54.968Z,37.64
2017-10-01T05:33:24.859Z,37.63
2017-10-01T05:35:54.644Z,37.59
2017-10-01T05:38:24.244Z,37.61
2017-10-01T05:40:53.956Z,37.62
2017-10-01T05:43:23.618Z,37.65
2017-10-01T05:45:55.127Z,37.66
2017-10-01T05:48:26.241Z,37.68
2017-10-01T05:50:56.109Z,37.70
2017-10-01T05:53:26.040Z,37.69
2017-10-01T05:55:56.745Z,37.66
2017-10-01T05:58:26.977Z,37.67
2017-10-01T06:00:56.645Z,37.66
2017-10-01T06:03:27.113Z,37.63
2017-10-01T06:05:58.091Z,37.60
2017-10-01T06:08:27.948Z,37.57
2017-10-01T06:10:58.138Z,37.50
2017-10-01T06:13:28.157Z,37.55
2017-10-01T06:15:57.842Z,37.57
2017-10-01T06:18:27.908Z,37.57
2017-10-01T06:20:58.309Z,37.53
2017-10-01T06:23:29.406Z,37.58
2017-10-01T06:25:59.846Z,37.55
2017-10-01T06:28:30.237Z,37.57
2017-10-01T06:31:02.925Z,37.57
2017-10-01T06:33:34.926Z,37.54
2017-10-01T06:36:04.959Z,37.50
2017-10-01T06:38:35.072Z,37.54
2017-10-01T06:41:05.160Z,37.54
2017-10-01T06:43:35.467Z,37.54
2017-10-01T06:46:05.112Z,37.54
2017-10-01T06:48:35.485Z,37.54
2017-10-01T06:51:06.155Z,37.54
2017-10-01T06:53:35.861Z,37.53
2017-10-01T06:56:05.808Z,37.54
2017-10-01T06:58:36.361Z,37.56
2017-10-01T07:01:06.226Z,37.55
2017-10-01T07:03:35.869Z,37.51
2017-10-01T07:06:05.469Z,37.53
2017-10-01T07:08:34.950Z,37.52
2017-10-01T07:11:04.711Z,37.53
2017-10-01T07:13:34.474Z,37.52
2017-10-01T07:16:04.605Z,37.52
2017-10-01T07:18:34.733Z,37.50
2017-10-01T07:21:06.761Z,37.51
2017-10-01T07:23:37.283Z,37.53
2017-10-01T07:26:08.682Z,37.53
2017-10-01T07:28:39.944Z,37.52
2017-10-01T07:31:11.531Z,37.53
2017-10-01T07:33:45.594Z,37.52
2017-10-01T07:36:16.055Z,37.50
2017-10-01T07:38:46.023Z,37.50
2017-10-01T07:41:17.280Z,37.47
2017-10-01T07:43:49.915Z,37.41
2017-10-01T07:46:21.462Z,37.43
2017-10-01T07:48:58.284Z,37.41
2017-10-01T07:51:35.557Z,37.40
2017-10-01T07:54:07.852Z,37.38
2017-10-01T07:56:39.919Z,37.37
2017-10-01T07:59:10.202Z,37.36
2017-10-01T08:01:40.947Z,37.36
2017-10-01T08:04:14.402Z,37.38
2017-10-01T08:06:44.527Z,37.36
2017-10-01T08:09:14.828Z,37.35
2017-10-01T08:11:45.296Z,37.28
2017-10-01T08:14:15.344Z,37.35
2017-10-01T08:16:45.123Z,37.36
2017-10-01T08:19:15.404Z,37.35
2017-10-01T08:21:46.627Z,37.36
2017-10-01T08:24:16.111Z,37.35
2017-10-01T08:26:46.023Z,37.35
2017-10-01T08:29:16.434Z,37.35
2017-10-01T08:31:46.293Z,37.36
2017-10-01T08:34:15.971Z,37.36
2017-10-01T08:36:46.062Z,37.34
2017-10-01T08:39:16.795Z,37.33
2017-10-01T08:41:46.941Z,37.32
2017-10-01T08:44:17.258Z,37.29
2017-10-01T08:46:50.778Z,37.28
2017-10-01T08:49:20.898Z,37.27
2017-10-01T08:51:55.150Z,37.19
2017-10-01T08:54:28.532Z,37.19
2017-10-01T08:56:59.436Z,37.14
2017-10-01T08:59:33.999Z,37.11
2017-10-01T09:02:06.861Z,37.12
2017-10-01T09:04:36.867Z,37.12
2017-10-01T09:07:07.886Z,37.16
2017-10-01T09:09:41.879Z,37.19
2017-10-01T09:12:12.372Z,37.18
2017-10-01T09:14:44.537Z,37.17
2017-10-01T09:17:15.540Z,37.14
2017-10-01T09:19:49.543Z,37.12
2017-10-01T09:22:20.809Z,37.11
2017-10-01T09:24:52.472Z,37.12
2017-10-01T09:27:22.360Z,37.12
2017-10-01T09:29:55.046Z,37.10
2017-10-01T09:32:25.415Z,37.12
2017-10-01T09:34:57.016Z,37.10
2017-10-01T09:37:28.490Z,37.12
2017-10-01T09:39:58.011Z,37.08
2017-10-01T09:42:28.901Z,37.08
2017-10-01T09:44:59.584Z,37.05
2017-10-01T09:47:31.332Z,37.05
2017-10-01T09:50:02.010Z,37.01
2017-10-01T09:52:33.028Z,37.06
2017-10-01T09:55:04.363Z,37.07
2017-10-01T09:57:34.579Z,37.07
2017-10-01T10:00:10.556Z,37.09
2017-10-01T10:02:41.051Z,37.05
2017-10-01T10:05:24.452Z,37.05
2017-10-01T10:08:16.827Z,37.00
2017-10-01T10:13:46.373Z,36.98
2017-10-01T10:16:17.866Z,37.03
2017-10-01T10:18:50.337Z,37.04
2017-10-01T10:21:20.677Z,37.07
2017-10-01T10:23:55.142Z,37.08
2017-10-01T10:26:25.972Z,37.08
2017-10-01T10:28:56.133Z,37.07
2017-10-01T10:31:27.058Z,37.04
2017-10-01T10:33:58.754Z,37.09
2017-10-01T10:36:29.360Z,37.11
2017-10-01T10:39:00.536Z,37.11
2017-10-01T10:41:30.233Z,37.10
2017-10-01T10:44:00.677Z,37.12
2017-10-01T10:46:30.582Z,37.11
2017-10-01T10:49:00.513Z,37.10
2017-10-01T10:51:30.854Z,37.09
2017-10-01T10:54:01.073Z,37.09
2017-10-01T10:56:31.249Z,37.06
2017-10-01T10:59:01.134Z,37.07
2017-10-01T11:01:31.569Z,37.05
2017-10-01T11:04:01.534Z,37.04
2017-10-01T11:06:31.333Z,37.04
2017-10-01T11:09:01.189Z,36.99
2017-10-01T11:11:30.811Z,36.99
2017-10-01T11:14:01.664Z,36.99
2017-10-01T11:16:31.536Z,36.97
2017-10-01T11:19:01.526Z,36.96
2017-10-01T11:21:31.146Z,36.96
2017-10-01T11:24:02.240Z,36.95
2017-10-01T11:26:32.328Z,36.93
2017-10-01T11:29:02.469Z,36.89
2017-10-01T11:31:32.975Z,36.88
2017-10-01T11:34:03.888Z,36.86
2017-10-01T11:36:33.573Z,36.86
2017-10-01T11:39:05.694Z,36.86
2017-10-01T11:41:36.004Z,36.84
2017-10-01T11:44:06.073Z,36.86
2017-10-01T11:46:36.358Z,36.84
2017-10-01T11:49:09.511Z,36.83
2017-10-01T11:51:39.399Z,36.80
2017-10-01T11:54:09.473Z,36.82
2017-10-01T11:56:39.591Z,36.81
2017-10-01T11:59:09.333Z,36.80
2017-10-01T12:01:39.249Z,36.77
2017-10-01T12:04:09.654Z,36.76
2017-10-01T12:06:39.579Z,36.75
2017-10-01T12:09:10.901Z,36.72
2017-10-01T12:11:40.847Z,36.74
2017-10-01T12:14:11.322Z,36.74
2017-10-01T12:16:41.108Z,36.74
2017-10-01T12:19:11.351Z,36.72
2017-10-01T12:21:41.314Z,36.70
2017-10-01T12:24:12.153Z,36.70
2017-10-01T12:26:41.627Z,36.69
2017-10-01T12:29:11.933Z,36.68
2017-10-01T12:31:42.559Z,36.68
2017-10-01T12:34:12.295Z,36.65
2017-10-01T12:36:42.132Z,36.65
2017-10-01T12:39:13.728Z,36.65
2017-10-01T12:41:44.651Z,36.66
2017-10-01T12:44:16.117Z,36.66
2017-10-01T12:46:47.103Z,36.66
2017-10-01T12:49:16.645Z,36.65
2017-10-01T12:51:46.926Z,36.64
2017-10-01T12:54:17.602Z,36.61
2017-10-01T12:56:48.741Z,36.60
2017-10-01T12:59:20.176Z,36.60
2017-10-01T13:01:54.726Z,36.61
2017-10-01T13:04:24.401Z,36.58
2017-10-01T13:06:57.015Z,36.59
2017-10-01T13:09:26.985Z,36.59
2017-10-01T13:11:56.990Z,36.59
2017-10-01T13:14:27.443Z,36.60
2017-10-01T13:16:57.404Z,36.57
2017-10-01T13:19:27.394Z,36.54
2017-10-01T13:21:57.684Z,36.52
2017-10-01T13:24:27.860Z,36.50
2017-10-01T13:26:57.198Z,36.48
2017-10-01T13:29:27.337Z,36.49
2017-10-01T13:31:56.895Z,36.46
2017-10-01T13:34:26.430Z,36.46
2017-10-01T13:36:56.143Z,36.45
2017-10-01T13:39:25.710Z,36.43
2017-10-01T13:41:55.134Z,36.41
2017-10-01T13:44:26.059Z,36.42
2017-10-01T13:46:55.562Z,36.42
2017-10-01T13:49:25.140Z,36.41
2017-10-01T13:51:54.868Z,36.40
2017-10-01T13:54:24.393Z,36.38
2017-10-01T13:56:54.386Z,36.39
2017-10-01T13:59:24.655Z,36.37
2017-10-01T14:01:54.255Z,36.37
2017-10-01T14:04:23.954Z,36.39
2017-10-01T14:06:54.507Z,36.39
2017-10-01T14:09:25.136Z,36.40
2017-10-01T14:11:55.292Z,36.39
2017-10-01T14:14:26.290Z,36.36
2017-10-01T14:16:57.588Z,36.34
2017-10-01T14:19:27.604Z,36.33
2017-10-01T14:21:59.099Z,36.34
2017-10-01T14:24:28.961Z,36.35
2017-10-01T14:27:00.286Z,36.35
2017-10-01T14:29:29.853Z,36.37
2017-10-01T14:32:03.499Z,36.40
2017-10-01T14:34:33.056Z,36.40
2017-10-01T14:37:02.688Z,36.40
2017-10-01T14:39:33.589Z,36.39
2017-10-01T14:42:05.133Z,36.39
2017-10-01T14:44:34.887Z,36.41
2017-10-01T14:47:04.834Z,36.41
2017-10-01T14:49:34.942Z,36.41
2017-10-01T14:52:05.926Z,36.41
2017-10-01T14:54:36.118Z,36.40
2017-10-01T14:57:06.911Z,36.43
2017-10-01T14:59:37.438Z,36.44
2017-10-01T15:02:09.142Z,36.44
2017-10-01T15:04:39.928Z,36.44
2017-10-01T15:07:09.540Z,36.44
2017-10-01T15:09:40.576Z,36.45
2017-10-01T15:12:10.392Z,36.43
2017-10-01T15:14:40.270Z,36.44
2017-10-01T15:17:11.018Z,36.44
2017-10-01T15:19:41.207Z,36.43
2017-10-01T15:22:11.586Z,36.41
2017-10-01T15:24:41.916Z,36.43
2017-10-01T15:27:11.673Z,36.42
2017-10-01T15:29:41.743Z,36.39
2017-10-01T15:32:13.072Z,36.40
2017-10-01T15:34:43.125Z,36.41
2017-10-01T15:37:14.876Z,36.40
2017-10-01T15:39:45.472Z,36.42
2017-10-01T15:42:15.036Z,36.42
2017-10-01T15:44:44.634Z,36.40
2017-10-01T15:47:14.369Z,36.44
2017-10-01T15:49:44.094Z,36.46
2017-10-01T15:52:13.772Z,36.46
2017-10-01T15:54:45.735Z,36.40
2017-10-01T15:57:16.379Z,36.44
2017-10-01T15:59:46.089Z,36.44
2017-10-01T16:02:16.368Z,36.44
2017-10-01T16:04:46.160Z,36.41
2017-10-01T16:07:18.790Z,36.40
2017-10-01T16:09:49.271Z,36.36
2017-10-01T16:12:19.940Z,36.36
2017-10-01T16:14:51.001Z,36.38
2017-10-01T16:17:21.643Z,36.40
2017-10-01T16:19:51.654Z,36.40
2017-10-01T16:22:21.565Z,36.43
2017-10-01T16:24:51.476Z,36.43
2017-10-01T16:27:25.158Z,36.40
2017-10-01T16:29:56.762Z,36.42
2017-10-01T16:32:26.653Z,36.42
2017-10-01T16:35:09.802Z,36.43
2017-10-01T16:37:39.843Z,36.44
2017-10-01T16:40:09.807Z,36.49
2017-10-01T16:42:39.330Z,36.46
2017-10-01T16:45:10.729Z,36.47
2017-10-01T16:47:40.641Z,36.51
2017-10-01T16:50:15.119Z,36.50
2017-10-01T16:52:45.016Z,36.50
2017-10-01T16:55:15.917Z,36.48
2017-10-01T16:57:49.593Z,36.50
2017-10-01T17:00:19.858Z,36.51
2017-10-01T17:02:50.459Z,36.50
2017-10-01T17:05:21.391Z,36.49
2017-10-01T17:07:53.242Z,36.48
2017-10-01T17:10:25.912Z,36.46
2017-10-01T17:12:56.514Z,36.51
2017-10-01T17:15:28.518Z,36.52
2017-10-01T17:17:58.239Z,36.53
2017-10-01T17:20:29.359Z,36.54
2017-10-01T17:23:00.054Z,36.52
2017-10-01T17:25:29.908Z,36.54
2017-10-01T17:28:00.587Z,36.54
2017-10-01T17:30:33.133Z,36.55
2017-10-01T17:33:03.319Z,36.53
2017-10-01T17:35:34.708Z,36.50
2017-10-01T17:38:04.465Z,36.46
2017-10-01T17:40:41.702Z,36.49
2017-10-01T17:43:12.196Z,36.47
2017-10-01T17:45:42.312Z,36.48
2017-10-01T17:48:12.729Z,36.49
2017-10-01T17:50:43.501Z,36.50
2017-10-01T17:53:14.174Z,36.49
2017-10-01T17:55:46.840Z,36.50
2017-10-01T17:58:19.024Z,36.50
2017-10-01T18:00:50.223Z,36.53
2017-10-01T18:03:20.487Z,36.54
2017-10-01T18:05:50.319Z,36.53
2017-10-01T18:08:20.139Z,36.53
2017-10-01T18:10:50.433Z,36.55
2017-10-01T18:13:21.522Z,36.54
2017-10-01T18:15:52.307Z,36.54
2017-10-01T18:18:26.351Z,36.54
2017-10-01T18:20:56.851Z,36.52
2017-10-01T18:23:26.940Z,36.51
2017-10-01T18:26:00.644Z,36.50
2017-10-01T18:28:32.789Z,36.51
2017-10-01T18:31:04.485Z,36.51
2017-10-01T18:33:35.355Z,36.54
2017-10-01T18:36:10.707Z,36.55
2017-10-01T18:38:41.208Z,36.55
2017-10-01T18:41:14.609Z,36.56
2017-10-01T18:43:46.070Z,36.55
2017-10-01T18:46:18.758Z,36.44
2017-10-01T18:48:49.807Z,36.41
2017-10-01T18:51:21.553Z,36.45
2017-10-01T18:53:52.760Z,36.50
2017-10-01T18:56:22.930Z,36.54
2017-10-01T18:58:53.229Z,36.57
2017-10-01T19:01:23.114Z,36.57
2017-10-01T19:03:52.903Z,36.59
2017-10-01T19:06:23.238Z,36.60
2017-10-01T19:09:02.777Z,36.62
2017-10-01T19:11:34.542Z,36.63
2017-10-01T19:14:06.001Z,36.64
2017-10-01T19:16:48.896Z,36.61
2017-10-01T19:19:19.154Z,36.62
2017-10-01T19:21:53.612Z,36.58
2017-10-01T19:24:23.664Z,36.61
2017-10-01T19:26:55.295Z,36.63
2017-10-01T19:29:25.419Z,36.64
2017-10-01T19:31:56.347Z,36.63
2017-10-01T19:34:27.924Z,36.63
2017-10-01T19:36:58.282Z,36.66
2017-10-01T19:39:27.991Z,36.66
2017-10-01T19:41:58.728Z,36.64
2017-10-01T19:44:28.897Z,36.64
2017-10-01T19:46:58.990Z,36.63
2017-10-01T19:49:28.599Z,36.64
2017-10-01T19:51:58.706Z,36.64
2017-10-01T19:54:29.149Z,36.64
2017-10-01T19:56:59.243Z,36.65
2017-10-01T19:59:29.788Z,36.62
2017-10-01T20:02:02.669Z,36.63
2017-10-01T20:04:34.606Z,36.62
2017-10-01T20:07:06.672Z,36.63
2017-10-01T20:09:36.895Z,36.62
2017-10-01T20:12:07.737Z,36.57
2017-10-01T20:14:37.697Z,36.58
2017-10-01T20:17:08.010Z,36.60
2017-10-01T20:19:38.250Z,36.58
2017-10-01T20:22:08.682Z,36.57
2017-10-01T20:24:38.646Z,36.58
2017-10-01T20:27:09.174Z,36.59
2017-10-01T20:29:38.836Z,36.58
2017-10-01T20:32:09.774Z,36.60
2017-10-01T20:34:40.197Z,36.59
2017-10-01T20:37:10.178Z,36.59
2017-10-01T20:39:39.893Z,36.59
2017-10-01T20:42:11.959Z,36.60
2017-10-01T20:44:43.837Z,36.56
2017-10-01T20:47:16.736Z,36.59
2017-10-01T20:49:49.606Z,36.57
2017-10-01T20:52:20.898Z,36.57
2017-10-01T20:54:52.303Z,36.58
2017-10-01T20:57:24.399Z,36.59
2017-10-01T20:59:56.225Z,36.58
2017-10-01T21:02:26.977Z,36.58
2017-10-01T21:05:00.742Z,36.57
2017-10-01T21:10:50.345Z,36.57
2017-10-01T21:13:29.516Z,36.57
2017-10-01T21:16:09.728Z,36.58
2017-10-01T21:19:00.962Z,36.59
2017-10-01T21:21:32.204Z,36.64
2017-10-01T21:24:02.986Z,36.67
2017-10-01T21:26:34.391Z,36.66
2017-10-01T21:29:09.473Z,36.66
2017-10-01T21:31:41.540Z,36.63
2017-10-01T21:34:13.070Z,36.62
2017-10-01T21:36:43.369Z,36.63
2017-10-01T21:39:14.286Z,36.63
2017-10-01T21:41:44.040Z,36.62
2017-10-01T21:44:13.529Z,36.63
2017-10-01T21:46:43.417Z,36.62
2017-10-01T21:49:14.585Z,36.63
2017-10-01T21:51:44.533Z,36.63
2017-10-01T21:54:13.992Z,36.63
2017-10-01T21:56:43.998Z,36.61
2017-10-01T21:59:13.531Z,36.62
2017-10-01T22:01:43.540Z,36.60
2017-10-01T22:04:13.751Z,36.58
2017-10-01T22:06:43.874Z,36.56
2017-10-01T22:09:13.502Z,36.56
2017-10-01T22:11:43.590Z,36.55
2017-10-01T22:14:13.755Z,36.57
2017-10-01T22:16:44.515Z,36.57
2017-10-01T22:19:14.367Z,36.58
2017-10-01T22:21:44.579Z,36.56
2017-10-01T22:24:14.181Z,36.58
2017-10-01T22:26:44.047Z,36.56
2017-10-01T22:29:14.509Z,36.47
2017-10-01T22:31:46.519Z,36.50
2017-10-01T22:34:16.974Z,36.49
2017-10-01T22:36:47.166Z,36.49
2017-10-01T22:39:17.186Z,36.50
2017-10-01T22:41:49.428Z,36.48
2017-10-01T22:44:19.105Z,36.50
2017-10-01T22:46:50.271Z,36.45
2017-10-01T22:49:20.814Z,36.49
2017-10-01T22:51:50.913Z,36.49
2017-10-01T22:54:20.636Z,36.50
2017-10-01T22:56:50.739Z,36.43
2017-10-01T22:59:20.499Z,36.51
2017-10-01T23:01:50.383Z,36.51
2017-10-01T23:04:20.534Z,36.50
2017-10-01T23:06:53.683Z,36.49
2017-10-01T23:09:23.801Z,36.48
2017-10-01T23:11:54.359Z,36.47
2017-10-01T23:14:23.883Z,36.47
2017-10-01T23:16:53.763Z,36.47
2017-10-01T23:19:24.228Z,36.48
2017-10-01T23:21:56.623Z,36.45
2017-10-01T23:24:26.355Z,36.44
2017-10-01T23:26:57.102Z,36.44
2017-10-01T23:29:26.859Z,36.42
2017-10-01T23:31:58.528Z,36.37
2017-10-01T23:34:29.342Z,36.36
2017-10-01T23:37:02.002Z,36.32
2017-10-01T23:39:35.562Z,36.30
2017-10-01T23:42:10.293Z,36.34
2017-10-01T23:44:40.016Z,36.35
2017-10-01T23:47:10.187Z,36.33
2017-10-01T23:49:45.779Z,36.31
2017-10-01T23:52:16.719Z,36.34
2017-10-01T23:54:46.497Z,36.31
2017-10-01T23:57:18.217Z,36.31
2017-10-01T23:59:49.332Z,36.31
